sensor_id;sensor_type;location;lat;lon;timestamp;P1;durP1;ratioP1;P2;durP2;ratioP2
67717;SDS011;54511;47.532;19.180;2023-12-14T00:01:05;7.70;;;1.77;;
67717;SDS011;54511;47.532;19.180;2023-12-14T00:03:41;2.62;;;2.15;;
67717;SDS011;54511;47.532;19.180;2023-12-14T00:06:30;7.25;;;2.37;;
67717;SDS011;54511;47.532;19.180;2023-12-14T00:08:57;3.53;;;2.40;;
67717;SDS011;54511;47.532;19.180;2023-12-14T00:12:05;4.28;;;2.50;;
67717;SDS011;54511;47.532;19.180;2023-12-14T00:15:18;2.78;;;2.47;;
67717;SDS011;54511;47.532;19.180;2023-12-14T00:17:46;2.60;;;2.40;;
67717;SDS011;54511;47.532;19.180;2023-12-14T00:20:49;3.50;;;2.17;;
67717;SDS011;54511;47.532;19.180;2023-12-14T00:23:17;1.92;;;1.62;;
67717;SDS011;54511;47.532;19.180;2023-12-14T00:26:24;4.32;;;2.97;;
67717;SDS011;54511;47.532;19.180;2023-12-14T00:28:51;10.32;;;3.80;;
67717;SDS011;54511;47.532;19.180;2023-12-14T00:31:20;4.10;;;2.45;;
67717;SDS011;54511;47.532;19.180;2023-12-14T00:33:48;2.05;;;1.30;;
67717;SDS011;54511;47.532;19.180;2023-12-14T00:36:55;1.20;;;1.10;;
67717;SDS011;54511;47.532;19.180;2023-12-14T00:42:34;3.05;;;2.35;;
67717;SDS011;54511;47.532;19.180;2023-12-14T00:45:21;1.95;;;1.67;;
67717;SDS011;54511;47.532;19.180;2023-12-14T00:48:15;0.60;;;0.60;;
67717;SDS011;54511;47.532;19.180;2023-12-14T00:51:31;0.90;;;0.90;;
67717;SDS011;54511;47.532;19.180;2023-12-14T00:54:38;2.12;;;1.45;;
67717;SDS011;54511;47.532;19.180;2023-12-14T00:57:06;2.62;;;1.73;;
67717;SDS011;54511;47.532;19.180;2023-12-14T00:59:33;3.33;;;2.28;;
67717;SDS011;54511;47.532;19.180;2023-12-14T01:02:01;1.35;;;1.27;;
67717;SDS011;54511;47.532;19.180;2023-12-14T01:04:50;0.82;;;0.75;;
67717;SDS011;54511;47.532;19.180;2023-12-14T01:07:39;4.05;;;2.25;;
67717;SDS011;54511;47.532;19.180;2023-12-14T01:10:26;10.82;;;2.08;;
67717;SDS011;54511;47.532;19.180;2023-12-14T01:13:13;3.85;;;1.33;;
67717;SDS011;54511;47.532;19.180;2023-12-14T01:15:42;1.40;;;1.30;;
67717;SDS011;54511;47.532;19.180;2023-12-14T01:18:20;0.82;;;0.80;;
67717;SDS011;54511;47.532;19.180;2023-12-14T01:21:28;1.75;;;1.65;;
67717;SDS011;54511;47.532;19.180;2023-12-14T01:24:55;0.80;;;0.68;;
67717;SDS011;54511;47.532;19.180;2023-12-14T01:27:53;3.75;;;0.68;;
67717;SDS011;54511;47.532;19.180;2023-12-14T01:30:21;2.55;;;1.15;;
67717;SDS011;54511;47.532;19.180;2023-12-14T01:33:25;1.37;;;1.30;;
67717;SDS011;54511;47.532;19.180;2023-12-14T01:36:12;0.52;;;0.52;;
67717;SDS011;54511;47.532;19.180;2023-12-14T01:39:40;1.20;;;1.02;;
67717;SDS011;54511;47.532;19.180;2023-12-14T01:42:47;0.60;;;0.60;;
67717;SDS011;54511;47.532;19.180;2023-12-14T01:46:14;0.47;;;0.40;;
67717;SDS011;54511;47.532;19.180;2023-12-14T01:49:21;1.98;;;1.10;;
67717;SDS011;54511;47.532;19.180;2023-12-14T01:52:50;3.12;;;1.10;;
67717;SDS011;54511;47.532;19.180;2023-12-14T01:56:17;3.05;;;1.40;;
67717;SDS011;54511;47.532;19.180;2023-12-14T01:59:24;3.37;;;1.23;;
67717;SDS011;54511;47.532;19.180;2023-12-14T02:02:31;1.87;;;1.70;;
67717;SDS011;54511;47.532;19.180;2023-12-14T02:05:58;2.40;;;0.88;;
67717;SDS011;54511;47.532;19.180;2023-12-14T02:08:50;0.20;;;0.20;;
67717;SDS011;54511;47.532;19.180;2023-12-14T02:15:01;1.55;;;0.60;;
67717;SDS011;54511;47.532;19.180;2023-12-14T02:18:08;0.90;;;0.90;;
67717;SDS011;54511;47.532;19.180;2023-12-14T02:20:56;2.53;;;1.77;;
67717;SDS011;54511;47.532;19.180;2023-12-14T02:24:07;0.13;;;0.13;;
67717;SDS011;54511;47.532;19.180;2023-12-14T02:26:59;0.55;;;0.55;;
67717;SDS011;54511;47.532;19.180;2023-12-14T02:30:25;0.77;;;0.65;;
67717;SDS011;54511;47.532;19.180;2023-12-14T02:33:13;1.90;;;1.52;;
67717;SDS011;54511;47.532;19.180;2023-12-14T02:36:00;1.30;;;0.80;;
67717;SDS011;54511;47.532;19.180;2023-12-14T02:39:28;0.50;;;0.50;;
67717;SDS011;54511;47.532;19.180;2023-12-14T02:42:35;1.08;;;0.62;;
67717;SDS011;54511;47.532;19.180;2023-12-14T02:45:04;2.12;;;1.30;;
67717;SDS011;54511;47.532;19.180;2023-12-14T02:48:11;1.33;;;0.80;;
67717;SDS011;54511;47.532;19.180;2023-12-14T02:51:19;0.73;;;0.73;;
67717;SDS011;54511;47.532;19.180;2023-12-14T02:54:06;1.20;;;0.85;;
67717;SDS011;54511;47.532;19.180;2023-12-14T02:57:34;3.25;;;1.17;;
67717;SDS011;54511;47.532;19.180;2023-12-14T03:00:42;0.95;;;0.95;;
67717;SDS011;54511;47.532;19.180;2023-12-14T03:04:09;0.65;;;0.65;;
67717;SDS011;54511;47.532;19.180;2023-12-14T03:06:56;0.47;;;0.45;;
67717;SDS011;54511;47.532;19.180;2023-12-14T03:09:45;1.20;;;0.73;;
67717;SDS011;54511;47.532;19.180;2023-12-14T03:12:52;0.75;;;0.52;;
67717;SDS011;54511;47.532;19.180;2023-12-14T03:16:00;1.70;;;0.88;;
67717;SDS011;54511;47.532;19.180;2023-12-14T03:19:10;2.08;;;0.73;;
67717;SDS011;54511;47.532;19.180;2023-12-14T03:21:59;1.50;;;1.02;;
67717;SDS011;54511;47.532;19.180;2023-12-14T03:24:47;2.72;;;2.12;;
67717;SDS011;54511;47.532;19.180;2023-12-14T03:28:15;1.48;;;1.37;;
67717;SDS011;54511;47.532;19.180;2023-12-14T03:31:03;1.30;;;0.43;;
67717;SDS011;54511;47.532;19.180;2023-12-14T03:34:11;2.67;;;2.17;;
67717;SDS011;54511;47.532;19.180;2023-12-14T03:37:38;1.85;;;0.80;;
67717;SDS011;54511;47.532;19.180;2023-12-14T03:40:26;2.37;;;1.23;;
67717;SDS011;54511;47.532;19.180;2023-12-14T03:43:53;0.60;;;0.60;;
67717;SDS011;54511;47.532;19.180;2023-12-14T03:47:21;1.00;;;1.00;;
67717;SDS011;54511;47.532;19.180;2023-12-14T03:50:28;3.10;;;2.30;;
67717;SDS011;54511;47.532;19.180;2023-12-14T03:53:36;0.60;;;0.60;;
67717;SDS011;54511;47.532;19.180;2023-12-14T03:56:45;1.60;;;1.23;;
67717;SDS011;54511;47.532;19.180;2023-12-14T03:59:53;1.15;;;1.05;;
67717;SDS011;54511;47.532;19.180;2023-12-14T04:03:20;0.73;;;0.73;;
67717;SDS011;54511;47.532;19.180;2023-12-14T04:06:28;1.15;;;1.10;;
67717;SDS011;54511;47.532;19.180;2023-12-14T04:09:35;0.88;;;0.50;;
67717;SDS011;54511;47.532;19.180;2023-12-14T04:12:05;0.80;;;0.73;;
67717;SDS011;54511;47.532;19.180;2023-12-14T04:15:12;3.62;;;1.00;;
67717;SDS011;54511;47.532;19.180;2023-12-14T04:18:00;1.35;;;1.23;;
67717;SDS011;54511;47.532;19.180;2023-12-14T04:21:27;7.72;;;1.00;;
67717;SDS011;54511;47.532;19.180;2023-12-14T04:24:54;0.55;;;0.50;;
67717;SDS011;54511;47.532;19.180;2023-12-14T04:28:03;1.90;;;1.48;;
67717;SDS011;54511;47.532;19.180;2023-12-14T04:31:10;1.48;;;1.37;;
67717;SDS011;54511;47.532;19.180;2023-12-14T04:34:37;0.77;;;0.73;;
67717;SDS011;54511;47.532;19.180;2023-12-14T04:37:45;2.22;;;1.33;;
67717;SDS011;54511;47.532;19.180;2023-12-14T04:40:32;4.70;;;2.45;;
67717;SDS011;54511;47.532;19.180;2023-12-14T04:43:41;0.85;;;0.80;;
67717;SDS011;54511;47.532;19.180;2023-12-14T04:47:16;3.80;;;1.15;;
67717;SDS011;54511;47.532;19.180;2023-12-14T04:50:24;0.50;;;0.50;;
67717;SDS011;54511;47.532;19.180;2023-12-14T04:53:31;0.90;;;0.90;;
67717;SDS011;54511;47.532;19.180;2023-12-14T04:56:39;2.17;;;1.98;;
67717;SDS011;54511;47.532;19.180;2023-12-14T05:00:09;1.10;;;0.60;;
67717;SDS011;54511;47.532;19.180;2023-12-14T05:03:36;1.98;;;1.25;;
67717;SDS011;54511;47.532;19.180;2023-12-14T05:06:23;1.70;;;0.73;;
67717;SDS011;54511;47.532;19.180;2023-12-14T05:09:50;1.48;;;1.27;;
67717;SDS011;54511;47.532;19.180;2023-12-14T05:12:58;2.10;;;1.05;;
67717;SDS011;54511;47.532;19.180;2023-12-14T05:16:12;2.20;;;1.25;;
67717;SDS011;54511;47.532;19.180;2023-12-14T05:19:14;4.12;;;1.85;;
67717;SDS011;54511;47.532;19.180;2023-12-14T05:22:01;5.07;;;1.60;;
67717;SDS011;54511;47.532;19.180;2023-12-14T05:25:22;5.35;;;2.37;;
67717;SDS011;54511;47.532;19.180;2023-12-14T05:28:49;6.43;;;4.95;;
67717;SDS011;54511;47.532;19.180;2023-12-14T05:31:38;10.05;;;6.05;;
67717;SDS011;54511;47.532;19.180;2023-12-14T05:35:05;5.55;;;3.05;;
67717;SDS011;54511;47.532;19.180;2023-12-14T05:38:13;5.00;;;3.50;;
67717;SDS011;54511;47.532;19.180;2023-12-14T05:41:22;2.83;;;1.67;;
67717;SDS011;54511;47.532;19.180;2023-12-14T05:44:43;1.83;;;1.70;;
67717;SDS011;54511;47.532;19.180;2023-12-14T05:51:29;2.80;;;1.67;;
67717;SDS011;54511;47.532;19.180;2023-12-14T05:54:37;4.70;;;1.52;;
67717;SDS011;54511;47.532;19.180;2023-12-14T05:57:19;1.35;;;1.00;;
67717;SDS011;54511;47.532;19.180;2023-12-14T06:04:04;2.42;;;1.52;;
67717;SDS011;54511;47.532;19.180;2023-12-14T06:07:15;5.75;;;2.50;;
67717;SDS011;54511;47.532;19.180;2023-12-14T06:10:42;2.00;;;1.87;;
67717;SDS011;54511;47.532;19.180;2023-12-14T06:14:09;2.10;;;1.90;;
67717;SDS011;54511;47.532;19.180;2023-12-14T06:17:36;8.35;;;1.73;;
67717;SDS011;54511;47.532;19.180;2023-12-14T06:20:24;2.20;;;1.60;;
67717;SDS011;54511;47.532;19.180;2023-12-14T06:23:32;2.92;;;1.90;;
67717;SDS011;54511;47.532;19.180;2023-12-14T06:26:59;1.52;;;1.42;;
67717;SDS011;54511;47.532;19.180;2023-12-14T06:30:27;3.15;;;2.80;;
67717;SDS011;54511;47.532;19.180;2023-12-14T06:33:14;1.80;;;1.70;;
67717;SDS011;54511;47.532;19.180;2023-12-14T06:36:25;1.92;;;1.67;;
67717;SDS011;54511;47.532;19.180;2023-12-14T06:39:33;5.07;;;1.25;;
67717;SDS011;54511;47.532;19.180;2023-12-14T06:43:03;0.45;;;0.45;;
67717;SDS011;54511;47.532;19.180;2023-12-14T06:46:31;3.62;;;3.03;;
67717;SDS011;54511;47.532;19.180;2023-12-14T06:49:38;1.87;;;1.70;;
67717;SDS011;54511;47.532;19.180;2023-12-14T06:52:47;3.72;;;2.50;;
67717;SDS011;54511;47.532;19.180;2023-12-14T06:59:53;2.08;;;1.92;;
67717;SDS011;54511;47.532;19.180;2023-12-14T07:03:28;4.03;;;2.72;;
67717;SDS011;54511;47.532;19.180;2023-12-14T07:06:56;2.35;;;1.50;;
67717;SDS011;54511;47.532;19.180;2023-12-14T07:10:05;2.53;;;2.22;;
67717;SDS011;54511;47.532;19.180;2023-12-14T07:13:13;1.20;;;1.17;;
67717;SDS011;54511;47.532;19.180;2023-12-14T07:16:42;2.45;;;2.25;;
67717;SDS011;54511;47.532;19.180;2023-12-14T07:19:50;2.45;;;1.90;;
67717;SDS011;54511;47.532;19.180;2023-12-14T07:23:17;10.32;;;1.50;;
67717;SDS011;54511;47.532;19.180;2023-12-14T07:26:06;5.25;;;3.22;;
67717;SDS011;54511;47.532;19.180;2023-12-14T07:29:14;1.98;;;1.73;;
67717;SDS011;54511;47.532;19.180;2023-12-14T07:32:22;0.45;;;0.45;;
67717;SDS011;54511;47.532;19.180;2023-12-14T07:35:50;3.20;;;2.00;;
67717;SDS011;54511;47.532;19.180;2023-12-14T07:39:23;3.12;;;2.65;;
67717;SDS011;54511;47.532;19.180;2023-12-14T07:42:10;1.60;;;1.50;;
67717;SDS011;54511;47.532;19.180;2023-12-14T07:45:37;2.85;;;2.12;;
67717;SDS011;54511;47.532;19.180;2023-12-14T07:48:50;2.60;;;2.25;;
67717;SDS011;54511;47.532;19.180;2023-12-14T07:52:17;2.55;;;1.77;;
67717;SDS011;54511;47.532;19.180;2023-12-14T07:55:05;4.65;;;2.42;;
67717;SDS011;54511;47.532;19.180;2023-12-14T07:58:12;2.45;;;1.98;;
67717;SDS011;54511;47.532;19.180;2023-12-14T08:01:40;1.12;;;1.12;;
67717;SDS011;54511;47.532;19.180;2023-12-14T08:04:50;1.62;;;1.52;;
67717;SDS011;54511;47.532;19.180;2023-12-14T08:07:59;2.12;;;1.42;;
67717;SDS011;54511;47.532;19.180;2023-12-14T08:11:27;7.95;;;1.85;;
67717;SDS011;54511;47.532;19.180;2023-12-14T08:14:17;2.90;;;1.92;;
67717;SDS011;54511;47.532;19.180;2023-12-14T08:17:06;6.65;;;2.80;;
67717;SDS011;54511;47.532;19.180;2023-12-14T08:20:36;2.45;;;1.25;;
67717;SDS011;54511;47.532;19.180;2023-12-14T08:23:46;4.28;;;2.17;;
67717;SDS011;54511;47.532;19.180;2023-12-14T08:27:14;3.25;;;2.92;;
67717;SDS011;54511;47.532;19.180;2023-12-14T08:30:44;2.85;;;2.47;;
67717;SDS011;54511;47.532;19.180;2023-12-14T08:34:11;2.50;;;1.67;;
67717;SDS011;54511;47.532;19.180;2023-12-14T08:37:21;3.00;;;2.12;;
67717;SDS011;54511;47.532;19.180;2023-12-14T08:40:28;4.20;;;2.25;;
67717;SDS011;54511;47.532;19.180;2023-12-14T08:43:35;3.22;;;2.17;;
67717;SDS011;54511;47.532;19.180;2023-12-14T08:46:43;2.97;;;1.62;;
67717;SDS011;54511;47.532;19.180;2023-12-14T08:50:10;3.00;;;2.72;;
67717;SDS011;54511;47.532;19.180;2023-12-14T08:53:00;2.30;;;1.17;;
67717;SDS011;54511;47.532;19.180;2023-12-14T08:56:08;3.78;;;2.83;;
67717;SDS011;54511;47.532;19.180;2023-12-14T08:59:15;4.95;;;1.52;;
67717;SDS011;54511;47.532;19.180;2023-12-14T09:02:22;1.77;;;1.00;;
67717;SDS011;54511;47.532;19.180;2023-12-14T09:05:11;2.92;;;2.40;;
67717;SDS011;54511;47.532;19.180;2023-12-14T09:08:39;2.22;;;1.62;;
67717;SDS011;54511;47.532;19.180;2023-12-14T09:11:47;3.80;;;1.67;;
67717;SDS011;54511;47.532;19.180;2023-12-14T09:15:15;3.62;;;2.37;;
67717;SDS011;54511;47.532;19.180;2023-12-14T09:18:30;1.37;;;1.27;;
67717;SDS011;54511;47.532;19.180;2023-12-14T09:21:58;2.47;;;2.17;;
67717;SDS011;54511;47.532;19.180;2023-12-14T09:25:07;2.40;;;1.40;;
67717;SDS011;54511;47.532;19.180;2023-12-14T09:28:15;6.30;;;1.73;;
67717;SDS011;54511;47.532;19.180;2023-12-14T09:31:22;7.05;;;4.47;;
67717;SDS011;54511;47.532;19.180;2023-12-14T09:34:50;4.05;;;2.90;;
67717;SDS011;54511;47.532;19.180;2023-12-14T09:37:57;2.20;;;1.15;;
67717;SDS011;54511;47.532;19.180;2023-12-14T09:40:57;2.50;;;2.05;;
67717;SDS011;54511;47.532;19.180;2023-12-14T09:44:26;3.47;;;2.45;;
67717;SDS011;54511;47.532;19.180;2023-12-14T09:47:54;5.18;;;3.05;;
67717;SDS011;54511;47.532;19.180;2023-12-14T09:51:21;4.15;;;2.75;;
67717;SDS011;54511;47.532;19.180;2023-12-14T09:54:28;2.25;;;2.08;;
67717;SDS011;54511;47.532;19.180;2023-12-14T09:57:17;3.70;;;2.20;;
67717;SDS011;54511;47.532;19.180;2023-12-14T10:00:34;3.33;;;2.45;;
67717;SDS011;54511;47.532;19.180;2023-12-14T10:04:07;1.30;;;1.02;;
67717;SDS011;54511;47.532;19.180;2023-12-14T10:07:14;1.92;;;1.75;;
67717;SDS011;54511;47.532;19.180;2023-12-14T10:10:22;4.65;;;2.33;;
67717;SDS011;54511;47.532;19.180;2023-12-14T10:13:37;1.40;;;1.08;;
67717;SDS011;54511;47.532;19.180;2023-12-14T10:17:14;1.35;;;1.00;;
67717;SDS011;54511;47.532;19.180;2023-12-14T10:20:21;4.90;;;2.30;;
67717;SDS011;54511;47.532;19.180;2023-12-14T10:23:08;9.63;;;2.62;;
67717;SDS011;54511;47.532;19.180;2023-12-14T10:26:16;4.80;;;2.92;;
67717;SDS011;54511;47.532;19.180;2023-12-14T10:30:07;8.40;;;2.17;;
67717;SDS011;54511;47.532;19.180;2023-12-14T10:33:39;0.68;;;0.68;;
67717;SDS011;54511;47.532;19.180;2023-12-14T10:36:44;9.00;;;1.95;;
67717;SDS011;54511;47.532;19.180;2023-12-14T10:40:13;5.62;;;1.37;;
67717;SDS011;54511;47.532;19.180;2023-12-14T10:43:21;2.45;;;1.80;;
67717;SDS011;54511;47.532;19.180;2023-12-14T10:46:44;3.03;;;1.95;;
67717;SDS011;54511;47.532;19.180;2023-12-14T10:49:51;4.15;;;2.42;;
67717;SDS011;54511;47.532;19.180;2023-12-14T10:53:18;3.60;;;2.28;;
67717;SDS011;54511;47.532;19.180;2023-12-14T10:56:25;2.12;;;1.48;;
67717;SDS011;54511;47.532;19.180;2023-12-14T10:59:57;2.85;;;1.48;;
67717;SDS011;54511;47.532;19.180;2023-12-14T11:10:13;2.08;;;1.80;;
67717;SDS011;54511;47.532;19.180;2023-12-14T11:13:48;0.75;;;0.75;;
67717;SDS011;54511;47.532;19.180;2023-12-14T11:17:22;2.70;;;2.00;;
67717;SDS011;54511;47.532;19.180;2023-12-14T11:20:46;2.60;;;1.90;;
67717;SDS011;54511;47.532;19.180;2023-12-14T11:27:32;1.52;;;1.42;;
67717;SDS011;54511;47.532;19.180;2023-12-14T11:31:15;2.17;;;1.52;;
67717;SDS011;54511;47.532;19.180;2023-12-14T11:35:02;3.15;;;2.53;;
67717;SDS011;54511;47.532;19.180;2023-12-14T11:38:27;3.15;;;1.62;;
67717;SDS011;54511;47.532;19.180;2023-12-14T11:41:30;1.90;;;1.65;;
67717;SDS011;54511;47.532;19.180;2023-12-14T11:45:25;4.78;;;2.10;;
67717;SDS011;54511;47.532;19.180;2023-12-14T11:48:58;4.18;;;2.12;;
67717;SDS011;54511;47.532;19.180;2023-12-14T11:52:33;4.35;;;1.95;;
67717;SDS011;54511;47.532;19.180;2023-12-14T11:56:04;5.28;;;2.47;;
67717;SDS011;54511;47.532;19.180;2023-12-14T11:59:43;3.35;;;2.30;;
67717;SDS011;54511;47.532;19.180;2023-12-14T12:06:48;1.10;;;0.82;;
67717;SDS011;54511;47.532;19.180;2023-12-14T12:10:31;2.05;;;1.33;;
67717;SDS011;54511;47.532;19.180;2023-12-14T12:14:03;4.03;;;2.85;;
67717;SDS011;54511;47.532;19.180;2023-12-14T12:20:57;1.25;;;0.95;;
67717;SDS011;54511;47.532;19.180;2023-12-14T12:24:32;2.55;;;1.77;;
67717;SDS011;54511;47.532;19.180;2023-12-14T12:28:05;3.03;;;1.35;;
67717;SDS011;54511;47.532;19.180;2023-12-14T12:34:55;2.67;;;1.77;;
67717;SDS011;54511;47.532;19.180;2023-12-14T12:45:44;1.83;;;1.17;;
67717;SDS011;54511;47.532;19.180;2023-12-14T12:49:19;8.52;;;2.08;;
67717;SDS011;54511;47.532;19.180;2023-12-14T12:52:56;17.65;;;2.28;;
67717;SDS011;54511;47.532;19.180;2023-12-14T12:56:14;4.07;;;1.70;;
67717;SDS011;54511;47.532;19.180;2023-12-14T12:59:07;1.45;;;1.35;;
67717;SDS011;54511;47.532;19.180;2023-12-14T13:02:41;1.60;;;1.27;;
67717;SDS011;54511;47.532;19.180;2023-12-14T13:06:25;1.65;;;1.00;;
67717;SDS011;54511;47.532;19.180;2023-12-14T13:13:39;1.85;;;1.48;;
67717;SDS011;54511;47.532;19.180;2023-12-14T13:20:46;1.65;;;1.55;;
67717;SDS011;54511;47.532;19.180;2023-12-14T13:24:18;2.70;;;0.60;;
67717;SDS011;54511;47.532;19.180;2023-12-14T13:28:01;1.15;;;1.15;;
67717;SDS011;54511;47.532;19.180;2023-12-14T13:31:34;4.20;;;1.58;;
67717;SDS011;54511;47.532;19.180;2023-12-14T13:35:28;1.30;;;1.10;;
67717;SDS011;54511;47.532;19.180;2023-12-14T13:55:56;4.78;;;2.03;;
67717;SDS011;54511;47.532;19.180;2023-12-14T13:59:17;1.20;;;1.08;;
67717;SDS011;54511;47.532;19.180;2023-12-14T14:02:51;4.68;;;1.15;;
67717;SDS011;54511;47.532;19.180;2023-12-14T14:06:39;3.62;;;1.30;;
67717;SDS011;54511;47.532;19.180;2023-12-14T14:09:42;1.65;;;1.17;;
67717;SDS011;54511;47.532;19.180;2023-12-14T14:16:08;3.65;;;1.92;;
67717;SDS011;54511;47.532;19.180;2023-12-14T14:19:53;2.28;;;2.00;;
67717;SDS011;54511;47.532;19.180;2023-12-14T14:23:26;2.05;;;1.33;;
67717;SDS011;54511;47.532;19.180;2023-12-14T14:26:34;1.15;;;0.98;;
67717;SDS011;54511;47.532;19.180;2023-12-14T14:33:19;1.30;;;1.08;;
67717;SDS011;54511;47.532;19.180;2023-12-14T14:36:58;4.40;;;1.40;;
67717;SDS011;54511;47.532;19.180;2023-12-14T14:39:59;2.20;;;2.05;;
67717;SDS011;54511;47.532;19.180;2023-12-14T14:43:06;3.08;;;1.98;;
67717;SDS011;54511;47.532;19.180;2023-12-14T14:46:16;2.35;;;1.98;;
67717;SDS011;54511;47.532;19.180;2023-12-14T14:49:50;5.05;;;1.85;;
67717;SDS011;54511;47.532;19.180;2023-12-14T14:52:59;2.72;;;2.50;;
67717;SDS011;54511;47.532;19.180;2023-12-14T14:56:07;0.82;;;0.82;;
67717;SDS011;54511;47.532;19.180;2023-12-14T14:58:58;1.23;;;1.12;;
67717;SDS011;54511;47.532;19.180;2023-12-14T15:09:35;0.97;;;0.70;;
67717;SDS011;54511;47.532;19.180;2023-12-14T15:13:27;3.50;;;2.05;;
67717;SDS011;54511;47.532;19.180;2023-12-14T15:16:25;6.97;;;2.55;;
67717;SDS011;54511;47.532;19.180;2023-12-14T15:20:20;3.28;;;2.20;;
67717;SDS011;54511;47.532;19.180;2023-12-14T15:24:15;1.40;;;1.30;;
67717;SDS011;54511;47.532;19.180;2023-12-14T15:28:02;3.78;;;1.92;;
67717;SDS011;54511;47.532;19.180;2023-12-14T15:38:59;2.22;;;1.33;;
67717;SDS011;54511;47.532;19.180;2023-12-14T15:42:42;3.17;;;2.42;;
67717;SDS011;54511;47.532;19.180;2023-12-14T15:45:43;3.70;;;1.98;;
67717;SDS011;54511;47.532;19.180;2023-12-14T15:52:21;1.85;;;1.52;;
67717;SDS011;54511;47.532;19.180;2023-12-14T15:56:05;2.78;;;2.22;;
67717;SDS011;54511;47.532;19.180;2023-12-14T15:59:26;2.87;;;1.33;;
67717;SDS011;54511;47.532;19.180;2023-12-14T16:02:18;1.83;;;1.23;;
67717;SDS011;54511;47.532;19.180;2023-12-14T16:05:46;5.12;;;0.93;;
67717;SDS011;54511;47.532;19.180;2023-12-14T16:12:23;1.00;;;0.90;;
67717;SDS011;54511;47.532;19.180;2023-12-14T16:16:03;1.50;;;1.40;;
67717;SDS011;54511;47.532;19.180;2023-12-14T16:19:35;1.58;;;1.48;;
67717;SDS011;54511;47.532;19.180;2023-12-14T16:26:06;1.30;;;1.20;;
67717;SDS011;54511;47.532;19.180;2023-12-14T16:29:27;2.85;;;1.60;;
67717;SDS011;54511;47.532;19.180;2023-12-14T16:32:55;1.08;;;1.08;;
67717;SDS011;54511;47.532;19.180;2023-12-14T16:36:09;0.80;;;0.80;;
67717;SDS011;54511;47.532;19.180;2023-12-14T16:46:56;1.85;;;1.35;;
67717;SDS011;54511;47.532;19.180;2023-12-14T16:50:26;1.45;;;1.35;;
67717;SDS011;54511;47.532;19.180;2023-12-14T16:53:34;1.52;;;0.88;;
67717;SDS011;54511;47.532;19.180;2023-12-14T17:00:26;1.58;;;1.48;;
67717;SDS011;54511;47.532;19.180;2023-12-14T17:07:24;8.23;;;1.33;;
67717;SDS011;54511;47.532;19.180;2023-12-14T17:10:35;2.85;;;1.75;;
67717;SDS011;54511;47.532;19.180;2023-12-14T17:17:07;1.80;;;1.70;;
67717;SDS011;54511;47.532;19.180;2023-12-14T17:20:15;2.90;;;1.75;;
67717;SDS011;54511;47.532;19.180;2023-12-14T17:23:53;3.58;;;1.52;;
67717;SDS011;54511;47.532;19.180;2023-12-14T17:27:45;3.67;;;2.03;;
67717;SDS011;54511;47.532;19.180;2023-12-14T17:34:54;5.68;;;3.35;;
67717;SDS011;54511;47.532;19.180;2023-12-14T17:38:36;9.30;;;2.45;;
67717;SDS011;54511;47.532;19.180;2023-12-14T17:42:11;6.62;;;3.62;;
67717;SDS011;54511;47.532;19.180;2023-12-14T17:45:43;4.07;;;2.20;;
67717;SDS011;54511;47.532;19.180;2023-12-14T17:49:20;3.22;;;2.45;;
67717;SDS011;54511;47.532;19.180;2023-12-14T17:52:29;3.85;;;2.60;;
67717;SDS011;54511;47.532;19.180;2023-12-14T18:02:33;3.42;;;2.83;;
67717;SDS011;54511;47.532;19.180;2023-12-14T18:09:51;5.97;;;2.10;;
67717;SDS011;54511;47.532;19.180;2023-12-14T18:12:57;4.97;;;2.20;;
67717;SDS011;54511;47.532;19.180;2023-12-14T18:16:05;4.03;;;2.75;;
67717;SDS011;54511;47.532;19.180;2023-12-14T18:19:42;2.97;;;1.87;;
67717;SDS011;54511;47.532;19.180;2023-12-14T18:22:40;3.47;;;2.65;;
67717;SDS011;54511;47.532;19.180;2023-12-14T18:26:21;5.62;;;2.40;;
67717;SDS011;54511;47.532;19.180;2023-12-14T18:29:57;4.10;;;1.98;;
67717;SDS011;54511;47.532;19.180;2023-12-14T18:32:57;2.08;;;1.75;;
67717;SDS011;54511;47.532;19.180;2023-12-14T18:39:12;3.25;;;2.20;;
67717;SDS011;54511;47.532;19.180;2023-12-14T18:42:29;5.07;;;3.12;;
67717;SDS011;54511;47.532;19.180;2023-12-14T18:52:30;6.68;;;3.55;;
67717;SDS011;54511;47.532;19.180;2023-12-14T18:59:40;4.85;;;2.95;;
67717;SDS011;54511;47.532;19.180;2023-12-14T19:03:25;5.33;;;2.17;;
67717;SDS011;54511;47.532;19.180;2023-12-14T19:06:50;2.53;;;2.25;;
67717;SDS011;54511;47.532;19.180;2023-12-14T19:10:28;2.85;;;1.80;;
67717;SDS011;54511;47.532;19.180;2023-12-14T19:13:44;8.05;;;3.72;;
67717;SDS011;54511;47.532;19.180;2023-12-14T19:17:04;3.35;;;2.15;;
67717;SDS011;54511;47.532;19.180;2023-12-14T19:20:31;3.95;;;2.40;;
67717;SDS011;54511;47.532;19.180;2023-12-14T19:24:14;2.33;;;2.10;;
67717;SDS011;54511;47.532;19.180;2023-12-14T19:28:07;6.10;;;3.97;;
67717;SDS011;54511;47.532;19.180;2023-12-14T19:31:52;7.40;;;3.10;;
67717;SDS011;54511;47.532;19.180;2023-12-14T19:35:32;5.97;;;3.00;;
67717;SDS011;54511;47.532;19.180;2023-12-14T19:38:44;2.95;;;2.50;;
67717;SDS011;54511;47.532;19.180;2023-12-14T19:42:06;11.82;;;3.28;;
67717;SDS011;54511;47.532;19.180;2023-12-14T19:45:41;5.72;;;3.33;;
67717;SDS011;54511;47.532;19.180;2023-12-14T19:52:12;4.22;;;3.85;;
67717;SDS011;54511;47.532;19.180;2023-12-14T19:55:42;4.07;;;2.87;;
67717;SDS011;54511;47.532;19.180;2023-12-14T19:59:11;7.75;;;4.78;;
67717;SDS011;54511;47.532;19.180;2023-12-14T20:02:48;8.80;;;4.43;;
67717;SDS011;54511;47.532;19.180;2023-12-14T20:05:35;14.85;;;4.72;;
67717;SDS011;54511;47.532;19.180;2023-12-14T20:08:49;12.70;;;5.82;;
67717;SDS011;54511;47.532;19.180;2023-12-14T20:15:10;4.78;;;3.03;;
67717;SDS011;54511;47.532;19.180;2023-12-14T20:19:11;6.28;;;4.55;;
67717;SDS011;54511;47.532;19.180;2023-12-14T20:29:15;15.27;;;6.30;;
67717;SDS011;54511;47.532;19.180;2023-12-14T20:31:49;7.57;;;4.07;;
67717;SDS011;54511;47.532;19.180;2023-12-14T20:52:16;6.93;;;5.43;;
67717;SDS011;54511;47.532;19.180;2023-12-14T20:59:16;8.02;;;4.15;;
67717;SDS011;54511;47.532;19.180;2023-12-14T21:02:39;6.18;;;3.28;;
67717;SDS011;54511;47.532;19.180;2023-12-14T21:06:11;6.90;;;4.12;;
67717;SDS011;54511;47.532;19.180;2023-12-14T21:09:36;7.03;;;3.03;;
67717;SDS011;54511;47.532;19.180;2023-12-14T21:12:41;8.60;;;5.00;;
67717;SDS011;54511;47.532;19.180;2023-12-14T21:16:12;4.43;;;3.40;;
67717;SDS011;54511;47.532;19.180;2023-12-14T21:19:13;3.93;;;2.97;;
67717;SDS011;54511;47.532;19.180;2023-12-14T21:26:08;1.85;;;1.75;;
67717;SDS011;54511;47.532;19.180;2023-12-14T21:36:56;5.10;;;2.22;;
